sensor_id;sensor_type;location;lat;lon;timestamp;pressure;altitude;pressure_sealevel;temperature;humidity
5595;BME280;1003;48.002;7.788;2024-01-30T00:02:03;100642.53;;;3.51;100.00
5595;BME280;1003;48.002;7.788;2024-01-30T00:04:29;100627.28;;;3.43;100.00
5595;BME280;1003;48.002;7.788;2024-01-30T00:06:56;100611.63;;;3.45;100.00
5595;BME280;1003;48.002;7.788;2024-01-30T00:09:23;100618.19;;;3.63;100.00
5595;BME280;1003;48.002;7.788;2024-01-30T00:11:50;100620.50;;;3.80;100.00
5595;BME280;1003;48.002;7.788;2024-01-30T00:14:17;100615.53;;;4.01;100.00
5595;BME280;1003;48.002;7.788;2024-01-30T00:16:44;100619.72;;;4.22;100.00
5595;BME280;1003;48.002;7.788;2024-01-30T00:19:13;100632.09;;;4.64;100.00
5595;BME280;1003;48.002;7.788;2024-01-30T00:21:40;100643.69;;;4.86;100.00
5595;BME280;1003;48.002;7.788;2024-01-30T00:24:07;100653.03;;;4.92;100.00
5595;BME280;1003;48.002;7.788;2024-01-30T00:26:34;100651.63;;;5.00;100.00
5595;BME280;1003;48.002;7.788;2024-01-30T00:29:01;100673.91;;;5.18;100.00
5595;BME280;1003;48.002;7.788;2024-01-30T00:31:28;100681.28;;;5.16;100.00
5595;BME280;1003;48.002;7.788;2024-01-30T00:33:55;100703.63;;;5.13;100.00
5595;BME280;1003;48.002;7.788;2024-01-30T00:36:23;100698.66;;;5.13;100.00
5595;BME280;1003;48.002;7.788;2024-01-30T00:38:50;100702.84;;;5.14;100.00
5595;BME280;1003;48.002;7.788;2024-01-30T00:41:18;100709.81;;;5.23;100.00
5595;BME280;1003;48.002;7.788;2024-01-30T00:43:45;100701.09;;;5.36;100.00
5595;BME280;1003;48.002;7.788;2024-01-30T00:46:12;100709.13;;;5.51;100.00
5595;BME280;1003;48.002;7.788;2024-01-30T00:48:39;100704.41;;;5.59;100.00
5595;BME280;1003;48.002;7.788;2024-01-30T00:51:05;100707.69;;;5.58;100.00
5595;BME280;1003;48.002;7.788;2024-01-30T00:53:34;100717.72;;;5.59;100.00
5595;BME280;1003;48.002;7.788;2024-01-30T00:56:01;100721.41;;;5.70;100.00
5595;BME280;1003;48.002;7.788;2024-01-30T00:58:27;100718.31;;;5.76;100.00
5595;BME280;1003;48.002;7.788;2024-01-30T01:00:54;100724.28;;;5.81;100.00
5595;BME280;1003;48.002;7.788;2024-01-30T01:03:21;100726.91;;;5.84;100.00
5595;BME280;1003;48.002;7.788;2024-01-30T01:05:48;100727.06;;;5.89;100.00
5595;BME280;1003;48.002;7.788;2024-01-30T01:08:15;100742.00;;;5.87;100.00
5595;BME280;1003;48.002;7.788;2024-01-30T01:10:43;100734.50;;;5.87;100.00
5595;BME280;1003;48.002;7.788;2024-01-30T01:13:10;100742.72;;;5.85;100.00
5595;BME280;1003;48.002;7.788;2024-01-30T01:15:37;100745.16;;;5.83;100.00
5595;BME280;1003;48.002;7.788;2024-01-30T01:18:05;100753.44;;;5.82;100.00
5595;BME280;1003;48.002;7.788;2024-01-30T01:20:32;100750.34;;;5.89;100.00
5595;BME280;1003;48.002;7.788;2024-01-30T01:22:59;100744.88;;;5.98;100.00
5595;BME280;1003;48.002;7.788;2024-01-30T01:25:26;100755.78;;;6.01;100.00
5595;BME280;1003;48.002;7.788;2024-01-30T01:27:55;100749.78;;;6.20;100.00
5595;BME280;1003;48.002;7.788;2024-01-30T01:30:22;100763.84;;;6.18;100.00
5595;BME280;1003;48.002;7.788;2024-01-30T01:32:51;100769.09;;;6.26;100.00
5595;BME280;1003;48.002;7.788;2024-01-30T01:35:22;100785.59;;;5.50;100.00
5595;BME280;1003;48.002;7.788;2024-01-30T01:37:50;100782.44;;;4.89;100.00
5595;BME280;1003;48.002;7.788;2024-01-30T01:40:22;100766.59;;;4.45;100.00
5595;BME280;1003;48.002;7.788;2024-01-30T01:42:50;100752.69;;;4.29;100.00
5595;BME280;1003;48.002;7.788;2024-01-30T01:45:19;100739.09;;;4.21;100.00
5595;BME280;1003;48.002;7.788;2024-01-30T01:47:50;100729.31;;;3.85;100.00
5595;BME280;1003;48.002;7.788;2024-01-30T01:50:19;100718.41;;;3.43;100.00
5595;BME280;1003;48.002;7.788;2024-01-30T01:52:47;100699.03;;;3.16;100.00
5595;BME280;1003;48.002;7.788;2024-01-30T01:55:16;100668.81;;;3.07;100.00
5595;BME280;1003;48.002;7.788;2024-01-30T01:57:44;100650.59;;;3.07;100.00
5595;BME280;1003;48.002;7.788;2024-01-30T02:00:14;100646.66;;;3.12;100.00
5595;BME280;1003;48.002;7.788;2024-01-30T02:02:45;100633.97;;;3.25;100.00
5595;BME280;1003;48.002;7.788;2024-01-30T02:05:12;100627.28;;;3.43;100.00
5595;BME280;1003;48.002;7.788;2024-01-30T02:07:39;100613.94;;;3.61;100.00
5595;BME280;1003;48.002;7.788;2024-01-30T02:10:08;100620.03;;;3.88;100.00
5595;BME280;1003;48.002;7.788;2024-01-30T02:12:36;100608.50;;;4.11;100.00
5595;BME280;1003;48.002;7.788;2024-01-30T02:15:04;100620.69;;;4.26;100.00
5595;BME280;1003;48.002;7.788;2024-01-30T02:17:33;100625.66;;;4.26;100.00
5595;BME280;1003;48.002;7.788;2024-01-30T02:20:01;100626.50;;;4.27;100.00
5595;BME280;1003;48.002;7.788;2024-01-30T02:22:33;100635.00;;;4.32;100.00
5595;BME280;1003;48.002;7.788;2024-01-30T02:25:01;100645.88;;;4.13;100.00
5595;BME280;1003;48.002;7.788;2024-01-30T02:27:28;100645.00;;;3.91;100.00
5595;BME280;1003;48.002;7.788;2024-01-30T02:29:54;100650.84;;;3.52;100.00
5595;BME280;1003;48.002;7.788;2024-01-30T02:32:21;100645.75;;;3.29;100.00
5595;BME280;1003;48.002;7.788;2024-01-30T02:34:48;100640.38;;;3.20;100.00
5595;BME280;1003;48.002;7.788;2024-01-30T02:37:16;100641.84;;;3.34;100.00
5595;BME280;1003;48.002;7.788;2024-01-30T02:39:45;100635.53;;;3.42;100.00
5595;BME280;1003;48.002;7.788;2024-01-30T02:42:12;100631.75;;;3.51;100.00
5595;BME280;1003;48.002;7.788;2024-01-30T02:44:38;100627.88;;;3.57;100.00
5595;BME280;1003;48.002;7.788;2024-01-30T02:47:05;100629.13;;;3.67;100.00
5595;BME280;1003;48.002;7.788;2024-01-30T02:49:32;100629.47;;;3.76;100.00
5595;BME280;1003;48.002;7.788;2024-01-30T02:51:59;100636.03;;;3.95;100.00
5595;BME280;1003;48.002;7.788;2024-01-30T02:54:26;100627.72;;;4.15;100.00
5595;BME280;1003;48.002;7.788;2024-01-30T02:56:54;100632.19;;;4.24;100.00
5595;BME280;1003;48.002;7.788;2024-01-30T02:59:21;100637.88;;;4.20;100.00
5595;BME280;1003;48.002;7.788;2024-01-30T03:01:48;100636.66;;;4.31;100.00
5595;BME280;1003;48.002;7.788;2024-01-30T03:04:14;100646.09;;;4.40;100.00
5595;BME280;1003;48.002;7.788;2024-01-30T03:06:45;100657.19;;;4.48;100.00
5595;BME280;1003;48.002;7.788;2024-01-30T03:09:15;100657.47;;;4.56;100.00
5595;BME280;1003;48.002;7.788;2024-01-30T03:11:41;100657.59;;;4.59;100.00
5595;BME280;1003;48.002;7.788;2024-01-30T03:14:10;100657.59;;;4.59;100.00
5595;BME280;1003;48.002;7.788;2024-01-30T03:16:37;100659.16;;;4.57;100.00
5595;BME280;1003;48.002;7.788;2024-01-30T03:19:06;100667.78;;;4.65;100.00
5595;BME280;1003;48.002;7.788;2024-01-30T03:21:35;100675.34;;;4.68;100.00
5595;BME280;1003;48.002;7.788;2024-01-30T03:24:02;100684.56;;;4.69;100.00
5595;BME280;1003;48.002;7.788;2024-01-30T03:26:29;100687.81;;;4.68;100.00
5595;BME280;1003;48.002;7.788;2024-01-30T03:28:56;100688.75;;;4.70;100.00
5595;BME280;1003;48.002;7.788;2024-01-30T03:31:24;100698.88;;;4.74;100.00
5595;BME280;1003;48.002;7.788;2024-01-30T03:33:51;100703.00;;;4.74;100.00
5595;BME280;1003;48.002;7.788;2024-01-30T03:36:18;100699.72;;;4.75;100.00
5595;BME280;1003;48.002;7.788;2024-01-30T03:38:45;100702.44;;;4.81;100.00
5595;BME280;1003;48.002;7.788;2024-01-30T03:41:12;100711.03;;;4.89;100.00
5595;BME280;1003;48.002;7.788;2024-01-30T03:43:38;100704.53;;;4.93;100.00
5595;BME280;1003;48.002;7.788;2024-01-30T03:46:05;100703.56;;;4.89;100.00
5595;BME280;1003;48.002;7.788;2024-01-30T03:48:34;100709.97;;;5.05;100.00
5595;BME280;1003;48.002;7.788;2024-01-30T03:51:00;100707.81;;;5.14;100.00
5595;BME280;1003;48.002;7.788;2024-01-30T03:53:27;100708.78;;;5.18;100.00
5595;BME280;1003;48.002;7.788;2024-01-30T03:55:54;100702.41;;;5.26;100.00
5595;BME280;1003;48.002;7.788;2024-01-30T03:58:21;100715.56;;;5.44;100.00
5595;BME280;1003;48.002;7.788;2024-01-30T04:00:48;100711.84;;;5.57;100.00
5595;BME280;1003;48.002;7.788;2024-01-30T04:03:15;100731.16;;;5.87;100.00
5595;BME280;1003;48.002;7.788;2024-01-30T04:05:44;100726.50;;;6.21;100.00
5595;BME280;1003;48.002;7.788;2024-01-30T04:08:11;100747.63;;;6.83;100.00
5595;BME280;1003;48.002;7.788;2024-01-30T04:10:38;100762.22;;;7.27;100.00
5595;BME280;1003;48.002;7.788;2024-01-30T04:13:05;100770.84;;;7.68;100.00
5595;BME280;1003;48.002;7.788;2024-01-30T04:15:32;100786.97;;;7.78;100.00
5595;BME280;1003;48.002;7.788;2024-01-30T04:17:58;100788.44;;;8.01;100.00
5595;BME280;1003;48.002;7.788;2024-01-30T04:20:25;100806.91;;;8.05;100.00
5595;BME280;1003;48.002;7.788;2024-01-30T04:22:53;100810.34;;;8.08;100.00
5595;BME280;1003;48.002;7.788;2024-01-30T04:25:20;100809.19;;;8.29;100.00
5595;BME280;1003;48.002;7.788;2024-01-30T04:27:48;100816.25;;;8.44;100.00
5595;BME280;1003;48.002;7.788;2024-01-30T04:30:15;100817.50;;;8.28;100.00
5595;BME280;1003;48.002;7.788;2024-01-30T04:32:43;100825.88;;;8.28;100.00
5595;BME280;1003;48.002;7.788;2024-01-30T04:35:10;100820.22;;;8.35;100.00
5595;BME280;1003;48.002;7.788;2024-01-30T04:37:37;100812.69;;;8.35;100.00
5595;BME280;1003;48.002;7.788;2024-01-30T04:40:07;100824.00;;;8.51;100.00
5595;BME280;1003;48.002;7.788;2024-01-30T04:42:35;100831.50;;;8.51;100.00
5595;BME280;1003;48.002;7.788;2024-01-30T04:45:02;100830.47;;;8.45;100.00
5595;BME280;1003;48.002;7.788;2024-01-30T04:47:29;100840.88;;;8.58;100.00
5595;BME280;1003;48.002;7.788;2024-01-30T04:49:56;100850.38;;;8.72;100.00
5595;BME280;1003;48.002;7.788;2024-01-30T04:52:23;100846.25;;;8.74;100.00
5595;BME280;1003;48.002;7.788;2024-01-30T04:54:50;100851.94;;;8.66;100.00
5595;BME280;1003;48.002;7.788;2024-01-30T04:57:18;100856.78;;;8.60;100.00
5595;BME280;1003;48.002;7.788;2024-01-30T04:59:45;100861.59;;;8.51;100.00
5595;BME280;1003;48.002;7.788;2024-01-30T05:02:12;100870.47;;;8.73;100.00
5595;BME280;1003;48.002;7.788;2024-01-30T05:04:41;100876.13;;;8.66;100.00
5595;BME280;1003;48.002;7.788;2024-01-30T05:07:08;100882.44;;;8.50;100.00
5595;BME280;1003;48.002;7.788;2024-01-30T05:09:34;100882.31;;;8.46;100.00
5595;BME280;1003;48.002;7.788;2024-01-30T05:12:02;100883.22;;;8.49;100.00
5595;BME280;1003;48.002;7.788;2024-01-30T05:14:30;100886.66;;;8.53;100.00
5595;BME280;1003;48.002;7.788;2024-01-30T05:16:57;100887.22;;;8.41;100.00
5595;BME280;1003;48.002;7.788;2024-01-30T05:19:24;100892.19;;;8.39;100.00
5595;BME280;1003;48.002;7.788;2024-01-30T05:21:51;100895.28;;;8.32;100.00
5595;BME280;1003;48.002;7.788;2024-01-30T05:24:18;100898.69;;;8.34;100.00
5595;BME280;1003;48.002;7.788;2024-01-30T05:26:45;100889.88;;;8.47;100.00
5595;BME280;1003;48.002;7.788;2024-01-30T05:29:13;100891.41;;;8.42;100.00
5595;BME280;1003;48.002;7.788;2024-01-30T05:31:42;100903.66;;;8.33;100.00
5595;BME280;1003;48.002;7.788;2024-01-30T05:34:11;100892.13;;;8.38;100.00
5595;BME280;1003;48.002;7.788;2024-01-30T05:36:38;100896.69;;;8.53;100.00
5595;BME280;1003;48.002;7.788;2024-01-30T05:39:05;100897.81;;;8.64;100.00
5595;BME280;1003;48.002;7.788;2024-01-30T05:41:33;100910.25;;;8.61;100.00
5595;BME280;1003;48.002;7.788;2024-01-30T05:44:00;100907.72;;;8.59;100.00
5595;BME280;1003;48.002;7.788;2024-01-30T05:46:26;100910.63;;;8.75;100.00
5595;BME280;1003;48.002;7.788;2024-01-30T05:48:55;100907.63;;;8.88;100.00
5595;BME280;1003;48.002;7.788;2024-01-30T05:51:22;100917.47;;;8.82;100.00
5595;BME280;1003;48.002;7.788;2024-01-30T05:53:48;100922.34;;;8.76;100.00
5595;BME280;1003;48.002;7.788;2024-01-30T05:56:15;100918.13;;;8.73;100.00
5595;BME280;1003;48.002;7.788;2024-01-30T05:58:42;100915.28;;;8.94;100.00
5595;BME280;1003;48.002;7.788;2024-01-30T06:01:09;100924.69;;;9.03;100.00
5595;BME280;1003;48.002;7.788;2024-01-30T06:03:36;100913.44;;;9.22;100.00
5595;BME280;1003;48.002;7.788;2024-01-30T06:06:09;100914.84;;;9.10;100.00
5595;BME280;1003;48.002;7.788;2024-01-30T06:08:36;100920.75;;;9.14;100.00
5595;BME280;1003;48.002;7.788;2024-01-30T06:11:03;100921.72;;;9.19;100.00
5595;BME280;1003;48.002;7.788;2024-01-30T06:13:30;100914.16;;;9.16;100.00
5595;BME280;1003;48.002;7.788;2024-01-30T06:16:01;100916.75;;;9.20;100.00
5595;BME280;1003;48.002;7.788;2024-01-30T06:18:28;100919.16;;;9.16;100.00
5595;BME280;1003;48.002;7.788;2024-01-30T06:20:56;100919.31;;;9.22;100.00
5595;BME280;1003;48.002;7.788;2024-01-30T06:23:25;100923.00;;;9.38;100.00
5595;BME280;1003;48.002;7.788;2024-01-30T06:25:52;100924.78;;;9.42;100.00
5595;BME280;1003;48.002;7.788;2024-01-30T06:28:19;100925.66;;;9.44;100.00
5595;BME280;1003;48.002;7.788;2024-01-30T06:30:46;100927.34;;;9.45;100.00
5595;BME280;1003;48.002;7.788;2024-01-30T06:33:13;100933.34;;;9.52;100.00
5595;BME280;1003;48.002;7.788;2024-01-30T06:35:40;100939.16;;;9.49;100.00
5595;BME280;1003;48.002;7.788;2024-01-30T06:38:07;100946.34;;;9.34;100.00
5595;BME280;1003;48.002;7.788;2024-01-30T06:40:36;100944.28;;;9.17;100.00
5595;BME280;1003;48.002;7.788;2024-01-30T06:43:04;100936.38;;;9.02;100.00
5595;BME280;1003;48.002;7.788;2024-01-30T06:45:31;100942.78;;;8.91;100.00
5595;BME280;1003;48.002;7.788;2024-01-30T06:47:58;100936.31;;;8.99;100.00
5595;BME280;1003;48.002;7.788;2024-01-30T06:50:26;100926.56;;;9.11;100.00
5595;BME280;1003;48.002;7.788;2024-01-30T06:52:52;100933.84;;;9.01;100.00
5595;BME280;1003;48.002;7.788;2024-01-30T06:55:19;100940.41;;;8.96;100.00
5595;BME280;1003;48.002;7.788;2024-01-30T06:57:48;100925.84;;;8.82;100.00
5595;BME280;1003;48.002;7.788;2024-01-30T07:00:16;100934.34;;;8.87;100.00
5595;BME280;1003;48.002;7.788;2024-01-30T07:02:45;100935.22;;;8.88;100.00
5595;BME280;1003;48.002;7.788;2024-01-30T07:05:12;100933.81;;;8.99;100.00
5595;BME280;1003;48.002;7.788;2024-01-30T07:07:39;100937.06;;;8.97;100.00
5595;BME280;1003;48.002;7.788;2024-01-30T07:10:08;100940.22;;;8.88;100.00
5595;BME280;1003;48.002;7.788;2024-01-30T07:12:35;100937.72;;;8.88;100.00
5595;BME280;1003;48.002;7.788;2024-01-30T07:15:04;100948.66;;;8.91;100.00
5595;BME280;1003;48.002;7.788;2024-01-30T07:17:33;100939.56;;;8.95;100.00
5595;BME280;1003;48.002;7.788;2024-01-30T07:20:00;100941.34;;;8.99;100.00
5595;BME280;1003;48.002;7.788;2024-01-30T07:22:29;100952.97;;;8.97;100.00
5595;BME280;1003;48.002;7.788;2024-01-30T07:24:56;100949.59;;;8.95;100.00
5595;BME280;1003;48.002;7.788;2024-01-30T07:27:23;100942.59;;;8.83;100.00
5595;BME280;1003;48.002;7.788;2024-01-30T07:29:50;100945.97;;;8.84;100.00
5595;BME280;1003;48.002;7.788;2024-01-30T07:32:18;100941.38;;;9.01;100.00
5595;BME280;1003;48.002;7.788;2024-01-30T07:34:45;100950.97;;;9.17;100.00
5595;BME280;1003;48.002;7.788;2024-01-30T07:37:12;100958.78;;;9.31;100.00
5595;BME280;1003;48.002;7.788;2024-01-30T07:39:41;100966.41;;;9.34;100.00
5595;BME280;1003;48.002;7.788;2024-01-30T07:42:08;100971.75;;;9.48;100.00
5595;BME280;1003;48.002;7.788;2024-01-30T07:44:35;100977.88;;;9.59;100.00
5595;BME280;1003;48.002;7.788;2024-01-30T07:47:02;100978.91;;;9.68;100.00
5595;BME280;1003;48.002;7.788;2024-01-30T07:49:32;100972.41;;;9.77;100.00
5595;BME280;1003;48.002;7.788;2024-01-30T07:52:04;100981.75;;;9.84;100.00
5595;BME280;1003;48.002;7.788;2024-01-30T07:54:32;100981.97;;;9.93;100.00
5595;BME280;1003;48.002;7.788;2024-01-30T07:57:00;100983.06;;;10.06;100.00
5595;BME280;1003;48.002;7.788;2024-01-30T07:59:27;100974.88;;;10.13;100.00
5595;BME280;1003;48.002;7.788;2024-01-30T08:01:54;100977.53;;;10.20;100.00
5595;BME280;1003;48.002;7.788;2024-01-30T08:04:20;100991.94;;;10.28;100.00
5595;BME280;1003;48.002;7.788;2024-01-30T08:06:49;100978.63;;;10.32;100.00
5595;BME280;1003;48.002;7.788;2024-01-30T08:09:16;100979.19;;;10.61;100.00
5595;BME280;1003;48.002;7.788;2024-01-30T08:11:43;100974.56;;;10.84;100.00
5595;BME280;1003;48.002;7.788;2024-01-30T08:14:09;100970.50;;;10.92;100.00
5595;BME280;1003;48.002;7.788;2024-01-30T08:16:36;100980.72;;;10.99;100.00
5595;BME280;1003;48.002;7.788;2024-01-30T08:19:03;100976.47;;;10.97;100.00
5595;BME280;1003;48.002;7.788;2024-01-30T08:21:30;100983.97;;;10.94;100.00
5595;BME280;1003;48.002;7.788;2024-01-30T08:24:03;100988.94;;;10.89;100.00
5595;BME280;1003;48.002;7.788;2024-01-30T08:26:30;100993.88;;;10.85;100.00
5595;BME280;1003;48.002;7.788;2024-01-30T08:28:57;100991.47;;;10.91;100.00
5595;BME280;1003;48.002;7.788;2024-01-30T08:31:24;100983.09;;;10.92;100.00
5595;BME280;1003;48.002;7.788;2024-01-30T08:33:51;100989.88;;;10.96;100.00
5595;BME280;1003;48.002;7.788;2024-01-30T08:36:19;100990.81;;;11.01;100.00
5595;BME280;1003;48.002;7.788;2024-01-30T08:38:46;100996.00;;;11.10;100.00
5595;BME280;1003;48.002;7.788;2024-01-30T08:41:15;100999.34;;;11.09;100.00
5595;BME280;1003;48.002;7.788;2024-01-30T08:43:42;101005.13;;;11.05;100.00
5595;BME280;1003;48.002;7.788;2024-01-30T08:46:10;100996.78;;;11.08;100.00
5595;BME280;1003;48.002;7.788;2024-01-30T08:48:37;100992.59;;;11.08;100.00
5595;BME280;1003;48.002;7.788;2024-01-30T08:51:04;100996.88;;;11.14;100.00
5595;BME280;1003;48.002;7.788;2024-01-30T08:53:34;100994.50;;;11.20;100.00
5595;BME280;1003;48.002;7.788;2024-01-30T08:56:02;101003.81;;;11.25;100.00
5595;BME280;1003;48.002;7.788;2024-01-30T08:58:31;100997.09;;;11.26;100.00
5595;BME280;1003;48.002;7.788;2024-01-30T09:00:58;101011.47;;;11.32;100.00
5595;BME280;1003;48.002;7.788;2024-01-30T09:03:26;101008.22;;;11.40;100.00
5595;BME280;1003;48.002;7.788;2024-01-30T09:05:55;101020.19;;;11.53;100.00
5595;BME280;1003;48.002;7.788;2024-01-30T09:08:22;101004.19;;;11.51;100.00
5595;BME280;1003;48.002;7.788;2024-01-30T09:10:49;101007.69;;;11.58;100.00
5595;BME280;1003;48.002;7.788;2024-01-30T09:13:16;100997.63;;;11.61;100.00
5595;BME280;1003;48.002;7.788;2024-01-30T09:15:45;101007.75;;;11.63;100.00
5595;BME280;1003;48.002;7.788;2024-01-30T09:18:12;101005.34;;;11.70;100.00
5595;BME280;1003;48.002;7.788;2024-01-30T09:20:39;101001.97;;;11.68;100.00
5595;BME280;1003;48.002;7.788;2024-01-30T09:23:05;101007.97;;;11.78;100.00
5595;BME280;1003;48.002;7.788;2024-01-30T09:25:32;101015.66;;;11.84;100.00
5595;BME280;1003;48.002;7.788;2024-01-30T09:28:00;101015.75;;;11.92;100.00
5595;BME280;1003;48.002;7.788;2024-01-30T09:30:27;101026.59;;;11.88;100.00
5595;BME280;1003;48.002;7.788;2024-01-30T09:32:55;101030.69;;;11.79;100.00
5595;BME280;1003;48.002;7.788;2024-01-30T09:35:22;101046.56;;;11.77;100.00
5595;BME280;1003;48.002;7.788;2024-01-30T09:37:49;101037.53;;;11.87;100.00
5595;BME280;1003;48.002;7.788;2024-01-30T09:40:17;101051.88;;;11.92;100.00
5595;BME280;1003;48.002;7.788;2024-01-30T09:42:47;101044.34;;;11.94;100.00
5595;BME280;1003;48.002;7.788;2024-01-30T09:45:17;101046.94;;;11.98;100.00
5595;BME280;1003;48.002;7.788;2024-01-30T09:47:46;101046.16;;;12.04;100.00
5595;BME280;1003;48.002;7.788;2024-01-30T09:50:15;101059.59;;;12.01;100.00
5595;BME280;1003;48.002;7.788;2024-01-30T09:52:44;101063.03;;;12.08;100.00
5595;BME280;1003;48.002;7.788;2024-01-30T09:55:11;101059.75;;;12.14;100.00
5595;BME280;1003;48.002;7.788;2024-01-30T09:57:38;101068.34;;;12.28;100.00
5595;BME280;1003;48.002;7.788;2024-01-30T10:00:06;101073.34;;;12.25;100.00
5595;BME280;1003;48.002;7.788;2024-01-30T10:02:35;101072.56;;;12.27;100.00
5595;BME280;1003;48.002;7.788;2024-01-30T10:05:02;101078.44;;;12.29;100.00
5595;BME280;1003;48.002;7.788;2024-01-30T10:07:31;101066.81;;;12.39;100.00
5595;BME280;1003;48.002;7.788;2024-01-30T10:09:58;101071.81;;;12.38;100.00
5595;BME280;1003;48.002;7.788;2024-01-30T10:12:27;101075.16;;;12.37;100.00
5595;BME280;1003;48.002;7.788;2024-01-30T10:14:56;101071.03;;;12.40;100.00
5595;BME280;1003;48.002;7.788;2024-01-30T10:17:25;101069.34;;;12.41;100.00
5595;BME280;1003;48.002;7.788;2024-01-30T10:19:52;101079.50;;;12.47;100.00
5595;BME280;1003;48.002;7.788;2024-01-30T10:22:20;101080.41;;;12.52;100.00
5595;BME280;1003;48.002;7.788;2024-01-30T10:24:48;101101.50;;;12.58;100.00
5595;BME280;1003;48.002;7.788;2024-01-30T10:27:16;101098.84;;;12.45;100.00
5595;BME280;1003;48.002;7.788;2024-01-30T10:29:43;101092.91;;;12.43;100.00
5595;BME280;1003;48.002;7.788;2024-01-30T10:32:10;101102.19;;;12.45;100.00
5595;BME280;1003;48.002;7.788;2024-01-30T10:34:37;101099.88;;;12.62;100.00
5595;BME280;1003;48.002;7.788;2024-01-30T10:37:09;101100.84;;;12.73;100.00
5595;BME280;1003;48.002;7.788;2024-01-30T10:39:39;101101.97;;;12.97;100.00
5595;BME280;1003;48.002;7.788;2024-01-30T10:42:15;101096.94;;;12.98;100.00
5595;BME280;1003;48.002;7.788;2024-01-30T10:44:53;101100.28;;;12.94;100.00
5595;BME280;1003;48.002;7.788;2024-01-30T10:47:27;101105.44;;;13.05;100.00
5595;BME280;1003;48.002;7.788;2024-01-30T10:49:55;101106.22;;;12.98;100.00
5595;BME280;1003;48.002;7.788;2024-01-30T10:52:24;101102.06;;;13.06;100.00
5595;BME280;1003;48.002;7.788;2024-01-30T10:54:54;101118.97;;;13.11;100.00
5595;BME280;1003;48.002;7.788;2024-01-30T10:57:24;101122.38;;;13.18;100.00
5595;BME280;1003;48.002;7.788;2024-01-30T10:59:54;101126.72;;;13.25;100.00
5595;BME280;1003;48.002;7.788;2024-01-30T11:02:23;101120.84;;;13.28;100.00
5595;BME280;1003;48.002;7.788;2024-01-30T11:04:57;101124.25;;;13.30;100.00
5595;BME280;1003;48.002;7.788;2024-01-30T11:07:26;101126.88;;;13.41;100.00
5595;BME280;1003;48.002;7.788;2024-01-30T11:10:00;101133.88;;;13.69;100.00
5595;BME280;1003;48.002;7.788;2024-01-30T11:12:30;101130.72;;;13.98;100.00
5595;BME280;1003;48.002;7.788;2024-01-30T11:15:03;101126.66;;;14.18;100.00
5595;BME280;1003;48.002;7.788;2024-01-30T11:17:44;101131.09;;;14.48;100.00
5595;BME280;1003;48.002;7.788;2024-01-30T11:20:12;101134.47;;;14.49;100.00
5595;BME280;1003;48.002;7.788;2024-01-30T11:22:42;101131.97;;;14.56;100.00
5595;BME280;1003;48.002;7.788;2024-01-30T11:25:14;101138.75;;;14.68;100.00
5595;BME280;1003;48.002;7.788;2024-01-30T11:27:44;101126.94;;;14.68;100.00
5595;BME280;1003;48.002;7.788;2024-01-30T11:30:22;101127.81;;;14.69;100.00
5595;BME280;1003;48.002;7.788;2024-01-30T11:33:02;101121.09;;;14.83;100.00
5595;BME280;1003;48.002;7.788;2024-01-30T11:35:33;101109.34;;;15.01;100.00
5595;BME280;1003;48.002;7.788;2024-01-30T11:38:01;101118.69;;;15.26;100.00
5595;BME280;1003;48.002;7.788;2024-01-30T11:40:29;101105.19;;;15.35;100.00
5595;BME280;1003;48.002;7.788;2024-01-30T11:43:00;101127.09;;;15.16;100.00
5595;BME280;1003;48.002;7.788;2024-01-30T11:45:28;101119.47;;;15.05;100.00
5595;BME280;1003;48.002;7.788;2024-01-30T11:47:55;101131.28;;;14.92;100.00
5595;BME280;1003;48.002;7.788;2024-01-30T11:50:22;101132.94;;;14.89;100.00
5595;BME280;1003;48.002;7.788;2024-01-30T11:52:49;101125.31;;;14.84;100.00
5595;BME280;1003;48.002;7.788;2024-01-30T11:55:17;101116.91;;;14.85;100.00
5595;BME280;1003;48.002;7.788;2024-01-30T11:57:44;101114.38;;;14.94;100.00
5595;BME280;1003;48.002;7.788;2024-01-30T12:00:17;101112.69;;;14.86;100.00
5595;BME280;1003;48.002;7.788;2024-01-30T12:02:49;101105.97;;;14.99;100.00
5595;BME280;1003;48.002;7.788;2024-01-30T12:05:19;101099.22;;;15.01;100.00
5595;BME280;1003;48.002;7.788;2024-01-30T12:07:46;101098.38;;;15.11;100.00
5595;BME280;1003;48.002;7.788;2024-01-30T12:10:13;101098.41;;;15.15;100.00
5595;BME280;1003;48.002;7.788;2024-01-30T12:12:43;101077.31;;;15.13;100.00
5595;BME280;1003;48.002;7.788;2024-01-30T12:15:11;101090.75;;;14.95;100.00
5595;BME280;1003;48.002;7.788;2024-01-30T12:17:40;101079.72;;;14.80;100.00
5595;BME280;1003;48.002;7.788;2024-01-30T12:20:10;101081.41;;;14.73;100.00
5595;BME280;1003;48.002;7.788;2024-01-30T12:22:39;101079.69;;;14.63;100.00
5595;BME280;1003;48.002;7.788;2024-01-30T12:25:09;101061.09;;;14.56;100.00
5595;BME280;1003;48.002;7.788;2024-01-30T12:27:36;101041.72;;;14.60;100.00
5595;BME280;1003;48.002;7.788;2024-01-30T12:30:06;101019.75;;;14.56;100.00
5595;BME280;1003;48.002;7.788;2024-01-30T12:32:35;101023.16;;;14.61;100.00
5595;BME280;1003;48.002;7.788;2024-01-30T12:35:07;101029.03;;;14.48;100.00
5595;BME280;1003;48.002;7.788;2024-01-30T12:37:34;101018.91;;;14.49;100.00
5595;BME280;1003;48.002;7.788;2024-01-30T12:40:02;101014.63;;;14.43;100.00
5595;BME280;1003;48.002;7.788;2024-01-30T12:42:30;101030.59;;;14.27;100.00
5595;BME280;1003;48.002;7.788;2024-01-30T12:44:57;101019.63;;;14.27;100.00
5595;BME280;1003;48.002;7.788;2024-01-30T12:47:25;101025.56;;;14.32;100.00
5595;BME280;1003;48.002;7.788;2024-01-30T12:49:52;101020.47;;;14.30;100.00
5595;BME280;1003;48.002;7.788;2024-01-30T12:52:22;101023.00;;;14.30;100.00
5595;BME280;1003;48.002;7.788;2024-01-30T12:54:49;101023.03;;;14.36;100.00
5595;BME280;1003;48.002;7.788;2024-01-30T12:57:17;101018.00;;;14.44;100.00
5595;BME280;1003;48.002;7.788;2024-01-30T12:59:45;101033.25;;;14.52;100.00
5595;BME280;1003;48.002;7.788;2024-01-30T13:02:13;101030.78;;;14.65;100.00
5595;BME280;1003;48.002;7.788;2024-01-30T13:04:40;101033.34;;;14.75;100.00
5595;BME280;1003;48.002;7.788;2024-01-30T13:07:07;101036.66;;;14.67;100.00
5595;BME280;1003;48.002;7.788;2024-01-30T13:09:36;101037.53;;;14.69;100.00
5595;BME280;1003;48.002;7.788;2024-01-30T13:12:04;101050.16;;;14.62;100.00